sensor_id;sensor_type;location;lat;lon;timestamp;P1;durP1;ratioP1;P2;durP2;ratioP2
20657;SDS011;10488;50.846;4.078;2023-05-19T00:01:07;11.52;;;6.20;;
20657;SDS011;10488;50.846;4.078;2023-05-19T00:03:34;13.95;;;6.95;;
20657;SDS011;10488;50.846;4.078;2023-05-19T00:06:04;12.45;;;7.32;;
20657;SDS011;10488;50.846;4.078;2023-05-19T00:08:34;9.57;;;6.38;;
20657;SDS011;10488;50.846;4.078;2023-05-19T00:11:02;10.45;;;6.88;;
20657;SDS011;10488;50.846;4.078;2023-05-19T00:13:29;15.05;;;7.30;;
20657;SDS011;10488;50.846;4.078;2023-05-19T00:15:54;10.75;;;6.82;;
20657;SDS011;10488;50.846;4.078;2023-05-19T00:18:20;13.48;;;8.30;;
20657;SDS011;10488;50.846;4.078;2023-05-19T00:20:47;13.05;;;7.53;;
20657;SDS011;10488;50.846;4.078;2023-05-19T00:23:13;12.43;;;7.28;;
20657;SDS011;10488;50.846;4.078;2023-05-19T00:25:38;13.23;;;7.57;;
20657;SDS011;10488;50.846;4.078;2023-05-19T00:28:04;11.98;;;7.43;;
20657;SDS011;10488;50.846;4.078;2023-05-19T00:30:30;11.57;;;7.18;;
20657;SDS011;10488;50.846;4.078;2023-05-19T00:32:56;10.63;;;7.78;;
20657;SDS011;10488;50.846;4.078;2023-05-19T00:35:22;13.10;;;8.30;;
20657;SDS011;10488;50.846;4.078;2023-05-19T00:37:48;15.07;;;7.75;;
20657;SDS011;10488;50.846;4.078;2023-05-19T00:40:13;14.90;;;8.23;;
20657;SDS011;10488;50.846;4.078;2023-05-19T00:42:39;11.82;;;8.27;;
20657;SDS011;10488;50.846;4.078;2023-05-19T00:45:05;15.27;;;8.00;;
20657;SDS011;10488;50.846;4.078;2023-05-19T00:47:32;11.68;;;7.72;;
20657;SDS011;10488;50.846;4.078;2023-05-19T00:49:57;12.73;;;7.47;;
20657;SDS011;10488;50.846;4.078;2023-05-19T00:52:23;16.98;;;8.10;;
20657;SDS011;10488;50.846;4.078;2023-05-19T00:54:50;11.05;;;8.15;;
20657;SDS011;10488;50.846;4.078;2023-05-19T00:57:17;15.00;;;8.25;;
20657;SDS011;10488;50.846;4.078;2023-05-19T00:59:45;13.82;;;8.18;;
20657;SDS011;10488;50.846;4.078;2023-05-19T01:02:13;10.75;;;7.85;;
20657;SDS011;10488;50.846;4.078;2023-05-19T01:04:39;17.40;;;8.05;;
20657;SDS011;10488;50.846;4.078;2023-05-19T01:07:07;18.73;;;7.95;;
20657;SDS011;10488;50.846;4.078;2023-05-19T01:09:34;12.88;;;8.05;;
20657;SDS011;10488;50.846;4.078;2023-05-19T01:12:01;15.73;;;8.43;;
20657;SDS011;10488;50.846;4.078;2023-05-19T01:14:27;15.27;;;8.15;;
20657;SDS011;10488;50.846;4.078;2023-05-19T01:17:12;21.85;;;8.60;;
20657;SDS011;10488;50.846;4.078;2023-05-19T01:22:59;16.80;;;9.25;;
20657;SDS011;10488;50.846;4.078;2023-05-19T01:31:22;14.75;;;9.02;;
20657;SDS011;10488;50.846;4.078;2023-05-19T01:33:51;16.10;;;9.63;;
20657;SDS011;10488;50.846;4.078;2023-05-19T01:36:18;14.32;;;9.23;;
20657;SDS011;10488;50.846;4.078;2023-05-19T01:38:46;13.82;;;9.48;;
20657;SDS011;10488;50.846;4.078;2023-05-19T01:41:15;16.50;;;9.73;;
20657;SDS011;10488;50.846;4.078;2023-05-19T01:43:44;18.48;;;9.38;;
20657;SDS011;10488;50.846;4.078;2023-05-19T01:46:11;17.98;;;9.48;;
20657;SDS011;10488;50.846;4.078;2023-05-19T01:48:38;14.50;;;9.38;;
20657;SDS011;10488;50.846;4.078;2023-05-19T01:51:04;15.63;;;9.63;;
20657;SDS011;10488;50.846;4.078;2023-05-19T01:53:29;16.05;;;9.65;;
20657;SDS011;10488;50.846;4.078;2023-05-19T01:55:55;18.23;;;9.85;;
20657;SDS011;10488;50.846;4.078;2023-05-19T02:01:32;17.05;;;10.05;;
20657;SDS011;10488;50.846;4.078;2023-05-19T02:09:19;19.00;;;10.20;;
20657;SDS011;10488;50.846;4.078;2023-05-19T02:11:54;18.08;;;10.18;;
20657;SDS011;10488;50.846;4.078;2023-05-19T02:17:28;17.23;;;10.25;;
20657;SDS011;10488;50.846;4.078;2023-05-19T02:20:00;15.57;;;10.20;;
20657;SDS011;10488;50.846;4.078;2023-05-19T02:22:28;17.50;;;10.27;;
20657;SDS011;10488;50.846;4.078;2023-05-19T02:24:54;27.15;;;10.13;;
20657;SDS011;10488;50.846;4.078;2023-05-19T02:27:21;25.98;;;10.52;;
20657;SDS011;10488;50.846;4.078;2023-05-19T02:29:47;14.82;;;9.27;;
20657;SDS011;10488;50.846;4.078;2023-05-19T02:32:13;16.55;;;10.18;;
20657;SDS011;10488;50.846;4.078;2023-05-19T02:34:39;12.88;;;9.52;;
20657;SDS011;10488;50.846;4.078;2023-05-19T02:37:11;16.45;;;10.07;;
20657;SDS011;10488;50.846;4.078;2023-05-19T02:39:37;17.30;;;10.77;;
20657;SDS011;10488;50.846;4.078;2023-05-19T02:42:03;15.85;;;9.77;;
20657;SDS011;10488;50.846;4.078;2023-05-19T02:44:29;14.88;;;10.43;;
20657;SDS011;10488;50.846;4.078;2023-05-19T02:46:55;16.40;;;10.75;;
20657;SDS011;10488;50.846;4.078;2023-05-19T02:49:20;17.80;;;10.80;;
20657;SDS011;10488;50.846;4.078;2023-05-19T02:51:46;20.20;;;10.88;;
20657;SDS011;10488;50.846;4.078;2023-05-19T02:54:12;14.05;;;9.98;;
20657;SDS011;10488;50.846;4.078;2023-05-19T02:56:37;18.15;;;10.98;;
20657;SDS011;10488;50.846;4.078;2023-05-19T02:59:03;17.52;;;10.38;;
20657;SDS011;10488;50.846;4.078;2023-05-19T03:01:29;17.88;;;11.18;;
20657;SDS011;10488;50.846;4.078;2023-05-19T03:03:56;20.73;;;10.80;;
20657;SDS011;10488;50.846;4.078;2023-05-19T03:06:22;15.48;;;10.70;;
20657;SDS011;10488;50.846;4.078;2023-05-19T03:08:48;20.48;;;11.13;;
20657;SDS011;10488;50.846;4.078;2023-05-19T03:11:14;23.38;;;11.30;;
20657;SDS011;10488;50.846;4.078;2023-05-19T03:13:40;19.23;;;10.27;;
20657;SDS011;10488;50.846;4.078;2023-05-19T03:16:06;18.10;;;10.65;;
20657;SDS011;10488;50.846;4.078;2023-05-19T03:18:33;17.08;;;10.43;;
20657;SDS011;10488;50.846;4.078;2023-05-19T03:20:58;22.30;;;10.77;;
20657;SDS011;10488;50.846;4.078;2023-05-19T03:23:25;19.67;;;11.32;;
20657;SDS011;10488;50.846;4.078;2023-05-19T03:25:51;17.85;;;11.00;;
20657;SDS011;10488;50.846;4.078;2023-05-19T03:28:20;18.38;;;12.15;;
20657;SDS011;10488;50.846;4.078;2023-05-19T03:30:47;18.83;;;11.32;;
20657;SDS011;10488;50.846;4.078;2023-05-19T03:33:14;20.05;;;11.75;;
20657;SDS011;10488;50.846;4.078;2023-05-19T03:35:40;18.00;;;11.65;;
20657;SDS011;10488;50.846;4.078;2023-05-19T03:38:08;26.75;;;11.77;;
20657;SDS011;10488;50.846;4.078;2023-05-19T03:40:34;17.75;;;10.95;;
20657;SDS011;10488;50.846;4.078;2023-05-19T03:42:59;18.40;;;10.85;;
20657;SDS011;10488;50.846;4.078;2023-05-19T03:45:25;20.88;;;11.65;;
20657;SDS011;10488;50.846;4.078;2023-05-19T03:47:51;22.88;;;11.93;;
20657;SDS011;10488;50.846;4.078;2023-05-19T03:50:17;18.67;;;11.95;;
20657;SDS011;10488;50.846;4.078;2023-05-19T03:52:43;21.50;;;11.63;;
20657;SDS011;10488;50.846;4.078;2023-05-19T03:55:10;16.85;;;11.35;;
20657;SDS011;10488;50.846;4.078;2023-05-19T03:57:36;20.00;;;12.90;;
20657;SDS011;10488;50.846;4.078;2023-05-19T04:00:02;16.90;;;11.45;;
20657;SDS011;10488;50.846;4.078;2023-05-19T04:02:29;18.48;;;11.40;;
20657;SDS011;10488;50.846;4.078;2023-05-19T04:04:55;20.95;;;11.63;;
20657;SDS011;10488;50.846;4.078;2023-05-19T04:07:21;21.15;;;12.25;;
20657;SDS011;10488;50.846;4.078;2023-05-19T04:09:48;22.50;;;11.60;;
20657;SDS011;10488;50.846;4.078;2023-05-19T04:12:14;16.50;;;10.95;;
20657;SDS011;10488;50.846;4.078;2023-05-19T04:14:40;16.77;;;11.35;;
20657;SDS011;10488;50.846;4.078;2023-05-19T04:17:06;18.33;;;11.73;;
20657;SDS011;10488;50.846;4.078;2023-05-19T04:19:32;14.43;;;10.77;;
20657;SDS011;10488;50.846;4.078;2023-05-19T04:21:57;16.20;;;11.20;;
20657;SDS011;10488;50.846;4.078;2023-05-19T04:24:23;24.83;;;12.20;;
20657;SDS011;10488;50.846;4.078;2023-05-19T04:26:49;20.25;;;12.18;;
20657;SDS011;10488;50.846;4.078;2023-05-19T04:29:16;20.98;;;12.13;;
20657;SDS011;10488;50.846;4.078;2023-05-19T04:31:44;20.58;;;11.82;;
20657;SDS011;10488;50.846;4.078;2023-05-19T04:34:10;19.30;;;12.43;;
20657;SDS011;10488;50.846;4.078;2023-05-19T04:36:36;16.15;;;11.02;;
20657;SDS011;10488;50.846;4.078;2023-05-19T04:39:01;23.33;;;12.20;;
20657;SDS011;10488;50.846;4.078;2023-05-19T04:41:31;20.92;;;12.45;;
20657;SDS011;10488;50.846;4.078;2023-05-19T04:43:58;19.20;;;11.88;;
20657;SDS011;10488;50.846;4.078;2023-05-19T04:46:24;22.33;;;11.95;;
20657;SDS011;10488;50.846;4.078;2023-05-19T04:48:51;19.55;;;11.63;;
20657;SDS011;10488;50.846;4.078;2023-05-19T04:51:21;23.88;;;12.18;;
20657;SDS011;10488;50.846;4.078;2023-05-19T04:53:52;18.52;;;11.85;;
20657;SDS011;10488;50.846;4.078;2023-05-19T04:56:20;18.73;;;11.73;;
20657;SDS011;10488;50.846;4.078;2023-05-19T04:58:46;18.85;;;11.68;;
20657;SDS011;10488;50.846;4.078;2023-05-19T05:01:13;22.15;;;12.85;;
20657;SDS011;10488;50.846;4.078;2023-05-19T05:03:39;24.50;;;13.13;;
20657;SDS011;10488;50.846;4.078;2023-05-19T05:06:06;22.45;;;13.18;;
20657;SDS011;10488;50.846;4.078;2023-05-19T05:08:31;24.23;;;12.60;;
20657;SDS011;10488;50.846;4.078;2023-05-19T05:10:57;21.00;;;12.80;;
20657;SDS011;10488;50.846;4.078;2023-05-19T05:13:23;19.55;;;13.68;;
20657;SDS011;10488;50.846;4.078;2023-05-19T05:15:50;20.88;;;13.20;;
20657;SDS011;10488;50.846;4.078;2023-05-19T05:18:20;23.35;;;13.30;;
20657;SDS011;10488;50.846;4.078;2023-05-19T05:20:46;22.05;;;12.90;;
20657;SDS011;10488;50.846;4.078;2023-05-19T05:23:12;19.42;;;12.77;;
20657;SDS011;10488;50.846;4.078;2023-05-19T05:25:39;20.52;;;12.98;;
20657;SDS011;10488;50.846;4.078;2023-05-19T05:28:05;21.65;;;12.43;;
20657;SDS011;10488;50.846;4.078;2023-05-19T05:30:32;17.42;;;12.40;;
20657;SDS011;10488;50.846;4.078;2023-05-19T05:32:58;17.20;;;11.23;;
20657;SDS011;10488;50.846;4.078;2023-05-19T05:35:24;21.15;;;11.82;;
20657;SDS011;10488;50.846;4.078;2023-05-19T05:37:50;17.75;;;10.57;;
20657;SDS011;10488;50.846;4.078;2023-05-19T05:40:16;15.68;;;10.10;;
20657;SDS011;10488;50.846;4.078;2023-05-19T05:42:42;16.05;;;9.48;;
20657;SDS011;10488;50.846;4.078;2023-05-19T05:45:07;15.73;;;7.82;;
20657;SDS011;10488;50.846;4.078;2023-05-19T05:47:33;16.85;;;7.85;;
20657;SDS011;10488;50.846;4.078;2023-05-19T05:50:03;10.93;;;7.93;;
20657;SDS011;10488;50.846;4.078;2023-05-19T05:52:32;9.52;;;7.35;;
20657;SDS011;10488;50.846;4.078;2023-05-19T05:55:01;10.55;;;7.35;;
20657;SDS011;10488;50.846;4.078;2023-05-19T05:57:28;15.30;;;6.75;;
20657;SDS011;10488;50.846;4.078;2023-05-19T05:59:55;10.27;;;6.93;;
20657;SDS011;10488;50.846;4.078;2023-05-19T06:02:20;13.38;;;7.65;;
20657;SDS011;10488;50.846;4.078;2023-05-19T06:04:47;11.32;;;6.95;;
20657;SDS011;10488;50.846;4.078;2023-05-19T06:07:12;12.02;;;6.22;;
20657;SDS011;10488;50.846;4.078;2023-05-19T06:09:38;14.05;;;6.57;;
20657;SDS011;10488;50.846;4.078;2023-05-19T06:12:04;13.55;;;7.15;;
20657;SDS011;10488;50.846;4.078;2023-05-19T06:14:30;11.48;;;6.85;;
20657;SDS011;10488;50.846;4.078;2023-05-19T06:16:56;14.85;;;7.10;;
20657;SDS011;10488;50.846;4.078;2023-05-19T06:19:21;11.65;;;7.05;;
20657;SDS011;10488;50.846;4.078;2023-05-19T06:21:49;11.60;;;6.22;;
20657;SDS011;10488;50.846;4.078;2023-05-19T06:24:15;12.98;;;7.45;;
20657;SDS011;10488;50.846;4.078;2023-05-19T06:26:41;12.48;;;6.78;;
20657;SDS011;10488;50.846;4.078;2023-05-19T06:29:07;10.57;;;7.13;;
20657;SDS011;10488;50.846;4.078;2023-05-19T06:31:32;11.38;;;6.55;;
20657;SDS011;10488;50.846;4.078;2023-05-19T06:33:58;9.82;;;6.75;;
20657;SDS011;10488;50.846;4.078;2023-05-19T06:36:24;10.23;;;7.00;;
20657;SDS011;10488;50.846;4.078;2023-05-19T06:38:49;11.20;;;6.80;;
20657;SDS011;10488;50.846;4.078;2023-05-19T06:41:15;9.02;;;6.28;;
20657;SDS011;10488;50.846;4.078;2023-05-19T06:43:41;14.25;;;7.70;;
20657;SDS011;10488;50.846;4.078;2023-05-19T06:46:07;11.35;;;6.80;;
20657;SDS011;10488;50.846;4.078;2023-05-19T06:48:33;14.48;;;6.50;;
20657;SDS011;10488;50.846;4.078;2023-05-19T06:50:59;13.40;;;7.03;;
20657;SDS011;10488;50.846;4.078;2023-05-19T06:53:24;12.20;;;6.78;;
20657;SDS011;10488;50.846;4.078;2023-05-19T06:55:50;15.40;;;6.93;;
20657;SDS011;10488;50.846;4.078;2023-05-19T06:58:16;14.02;;;7.20;;
20657;SDS011;10488;50.846;4.078;2023-05-19T07:00:41;9.60;;;6.72;;
20657;SDS011;10488;50.846;4.078;2023-05-19T07:03:07;15.25;;;7.40;;
20657;SDS011;10488;50.846;4.078;2023-05-19T07:05:33;11.25;;;6.55;;
20657;SDS011;10488;50.846;4.078;2023-05-19T07:07:59;10.50;;;7.65;;
20657;SDS011;10488;50.846;4.078;2023-05-19T07:10:25;13.98;;;7.38;;
20657;SDS011;10488;50.846;4.078;2023-05-19T07:12:51;14.48;;;6.78;;
20657;SDS011;10488;50.846;4.078;2023-05-19T07:15:17;10.55;;;6.80;;
20657;SDS011;10488;50.846;4.078;2023-05-19T07:17:43;10.65;;;6.47;;
20657;SDS011;10488;50.846;4.078;2023-05-19T07:20:09;12.57;;;7.22;;
20657;SDS011;10488;50.846;4.078;2023-05-19T07:22:35;12.98;;;7.00;;
20657;SDS011;10488;50.846;4.078;2023-05-19T07:25:02;8.98;;;6.80;;
20657;SDS011;10488;50.846;4.078;2023-05-19T07:27:28;14.43;;;6.97;;
20657;SDS011;10488;50.846;4.078;2023-05-19T07:29:53;10.68;;;6.53;;
20657;SDS011;10488;50.846;4.078;2023-05-19T07:32:19;13.00;;;7.38;;
20657;SDS011;10488;50.846;4.078;2023-05-19T07:34:45;14.75;;;7.18;;
20657;SDS011;10488;50.846;4.078;2023-05-19T07:37:10;14.23;;;6.80;;
20657;SDS011;10488;50.846;4.078;2023-05-19T07:39:36;13.55;;;6.78;;
20657;SDS011;10488;50.846;4.078;2023-05-19T07:42:02;14.68;;;7.53;;
20657;SDS011;10488;50.846;4.078;2023-05-19T07:44:28;14.25;;;7.47;;
20657;SDS011;10488;50.846;4.078;2023-05-19T07:46:55;15.90;;;7.35;;
20657;SDS011;10488;50.846;4.078;2023-05-19T07:49:21;11.68;;;6.57;;
20657;SDS011;10488;50.846;4.078;2023-05-19T07:51:47;9.55;;;6.70;;
20657;SDS011;10488;50.846;4.078;2023-05-19T07:54:12;15.10;;;7.47;;
20657;SDS011;10488;50.846;4.078;2023-05-19T07:56:38;12.38;;;6.47;;
20657;SDS011;10488;50.846;4.078;2023-05-19T07:59:04;12.95;;;7.68;;
20657;SDS011;10488;50.846;4.078;2023-05-19T08:01:31;11.27;;;6.75;;
20657;SDS011;10488;50.846;4.078;2023-05-19T08:03:57;12.45;;;7.50;;
20657;SDS011;10488;50.846;4.078;2023-05-19T08:06:23;11.45;;;7.13;;
20657;SDS011;10488;50.846;4.078;2023-05-19T08:08:49;10.48;;;6.78;;
20657;SDS011;10488;50.846;4.078;2023-05-19T08:11:16;11.10;;;7.35;;
20657;SDS011;10488;50.846;4.078;2023-05-19T08:13:41;13.43;;;7.20;;
20657;SDS011;10488;50.846;4.078;2023-05-19T08:16:07;10.13;;;6.32;;
20657;SDS011;10488;50.846;4.078;2023-05-19T08:18:33;9.63;;;6.68;;
20657;SDS011;10488;50.846;4.078;2023-05-19T08:20:59;9.80;;;6.80;;
20657;SDS011;10488;50.846;4.078;2023-05-19T08:23:25;12.30;;;6.22;;
20657;SDS011;10488;50.846;4.078;2023-05-19T08:25:51;11.48;;;6.50;;
20657;SDS011;10488;50.846;4.078;2023-05-19T08:28:17;13.55;;;7.15;;
20657;SDS011;10488;50.846;4.078;2023-05-19T08:30:42;16.10;;;7.25;;
20657;SDS011;10488;50.846;4.078;2023-05-19T08:33:08;11.40;;;7.28;;
20657;SDS011;10488;50.846;4.078;2023-05-19T08:35:34;12.82;;;6.63;;
20657;SDS011;10488;50.846;4.078;2023-05-19T08:37:59;14.02;;;6.53;;
20657;SDS011;10488;50.846;4.078;2023-05-19T08:40:25;16.23;;;6.30;;
20657;SDS011;10488;50.846;4.078;2023-05-19T08:42:55;12.60;;;5.78;;
20657;SDS011;10488;50.846;4.078;2023-05-19T08:45:21;10.57;;;6.22;;
20657;SDS011;10488;50.846;4.078;2023-05-19T08:47:46;12.05;;;6.32;;
20657;SDS011;10488;50.846;4.078;2023-05-19T08:50:20;11.77;;;5.47;;
20657;SDS011;10488;50.846;4.078;2023-05-19T08:52:58;12.27;;;6.35;;
20657;SDS011;10488;50.846;4.078;2023-05-19T08:58:25;8.93;;;6.20;;
20657;SDS011;10488;50.846;4.078;2023-05-19T09:00:52;12.27;;;7.60;;
20657;SDS011;10488;50.846;4.078;2023-05-19T09:03:19;14.02;;;6.57;;
20657;SDS011;10488;50.846;4.078;2023-05-19T09:05:46;12.05;;;5.72;;
20657;SDS011;10488;50.846;4.078;2023-05-19T09:08:12;7.20;;;4.85;;
20657;SDS011;10488;50.846;4.078;2023-05-19T09:10:38;10.00;;;5.75;;
20657;SDS011;10488;50.846;4.078;2023-05-19T09:13:04;11.20;;;5.45;;
20657;SDS011;10488;50.846;4.078;2023-05-19T09:15:30;11.75;;;5.53;;
20657;SDS011;10488;50.846;4.078;2023-05-19T09:18:07;11.93;;;5.75;;
20657;SDS011;10488;50.846;4.078;2023-05-19T09:20:41;10.95;;;6.20;;
20657;SDS011;10488;50.846;4.078;2023-05-19T09:23:14;9.40;;;5.10;;
20657;SDS011;10488;50.846;4.078;2023-05-19T09:25:47;12.05;;;5.55;;
20657;SDS011;10488;50.846;4.078;2023-05-19T09:28:26;8.80;;;5.45;;
20657;SDS011;10488;50.846;4.078;2023-05-19T09:31:01;12.25;;;5.63;;
20657;SDS011;10488;50.846;4.078;2023-05-19T09:33:27;13.68;;;6.20;;
20657;SDS011;10488;50.846;4.078;2023-05-19T09:35:54;13.48;;;5.28;;
20657;SDS011;10488;50.846;4.078;2023-05-19T09:38:23;8.68;;;5.07;;
20657;SDS011;10488;50.846;4.078;2023-05-19T09:40:49;11.48;;;5.38;;
20657;SDS011;10488;50.846;4.078;2023-05-19T09:43:16;6.45;;;4.88;;
20657;SDS011;10488;50.846;4.078;2023-05-19T09:45:41;11.90;;;5.25;;
20657;SDS011;10488;50.846;4.078;2023-05-19T09:48:07;7.45;;;5.18;;
20657;SDS011;10488;50.846;4.078;2023-05-19T09:50:33;9.90;;;4.30;;
20657;SDS011;10488;50.846;4.078;2023-05-19T09:52:59;10.45;;;5.82;;
20657;SDS011;10488;50.846;4.078;2023-05-19T09:55:30;8.27;;;4.03;;
20657;SDS011;10488;50.846;4.078;2023-05-19T09:57:57;6.47;;;3.97;;
20657;SDS011;10488;50.846;4.078;2023-05-19T10:00:28;6.90;;;4.00;;
20657;SDS011;10488;50.846;4.078;2023-05-19T10:02:54;7.78;;;4.07;;
20657;SDS011;10488;50.846;4.078;2023-05-19T10:05:21;12.02;;;4.25;;
20657;SDS011;10488;50.846;4.078;2023-05-19T10:07:49;8.15;;;3.53;;
20657;SDS011;10488;50.846;4.078;2023-05-19T10:10:15;6.88;;;3.80;;
20657;SDS011;10488;50.846;4.078;2023-05-19T10:12:41;6.97;;;3.55;;
20657;SDS011;10488;50.846;4.078;2023-05-19T10:15:08;7.30;;;4.22;;
20657;SDS011;10488;50.846;4.078;2023-05-19T10:17:38;7.93;;;4.22;;
20657;SDS011;10488;50.846;4.078;2023-05-19T10:20:09;8.85;;;3.50;;
20657;SDS011;10488;50.846;4.078;2023-05-19T10:22:35;7.95;;;3.85;;
20657;SDS011;10488;50.846;4.078;2023-05-19T10:25:02;10.20;;;3.42;;
20657;SDS011;10488;50.846;4.078;2023-05-19T10:27:29;6.95;;;3.20;;
20657;SDS011;10488;50.846;4.078;2023-05-19T10:29:57;12.75;;;3.50;;
20657;SDS011;10488;50.846;4.078;2023-05-19T10:32:29;11.52;;;3.08;;
20657;SDS011;10488;50.846;4.078;2023-05-19T10:40:37;7.32;;;3.53;;
20657;SDS011;10488;50.846;4.078;2023-05-19T10:43:16;10.52;;;3.85;;
20657;SDS011;10488;50.846;4.078;2023-05-19T10:46:02;7.50;;;4.10;;
20657;SDS011;10488;50.846;4.078;2023-05-19T10:48:31;5.70;;;3.20;;
20657;SDS011;10488;50.846;4.078;2023-05-19T10:51:00;8.88;;;3.83;;
20657;SDS011;10488;50.846;4.078;2023-05-19T10:53:30;13.60;;;3.92;;
20657;SDS011;10488;50.846;4.078;2023-05-19T10:55:57;13.95;;;3.92;;
20657;SDS011;10488;50.846;4.078;2023-05-19T10:58:35;7.55;;;3.78;;
20657;SDS011;10488;50.846;4.078;2023-05-19T11:03:44;8.57;;;3.33;;
20657;SDS011;10488;50.846;4.078;2023-05-19T11:06:18;7.78;;;3.22;;
20657;SDS011;10488;50.846;4.078;2023-05-19T11:08:57;11.40;;;4.75;;
20657;SDS011;10488;50.846;4.078;2023-05-19T11:14:19;8.65;;;3.53;;
20657;SDS011;10488;50.846;4.078;2023-05-19T11:16:55;9.05;;;3.53;;
20657;SDS011;10488;50.846;4.078;2023-05-19T11:21:51;9.38;;;2.85;;
20657;SDS011;10488;50.846;4.078;2023-05-19T11:24:38;7.82;;;3.10;;
20657;SDS011;10488;50.846;4.078;2023-05-19T11:27:16;8.60;;;3.00;;
20657;SDS011;10488;50.846;4.078;2023-05-19T11:29:51;10.00;;;4.03;;
20657;SDS011;10488;50.846;4.078;2023-05-19T11:32:36;11.32;;;3.28;;
20657;SDS011;10488;50.846;4.078;2023-05-19T11:35:07;11.43;;;3.30;;
20657;SDS011;10488;50.846;4.078;2023-05-19T11:37:34;10.70;;;3.55;;
20657;SDS011;10488;50.846;4.078;2023-05-19T11:40:01;9.40;;;3.30;;
20657;SDS011;10488;50.846;4.078;2023-05-19T11:42:33;8.23;;;3.33;;
20657;SDS011;10488;50.846;4.078;2023-05-19T11:45:01;7.20;;;3.08;;
20657;SDS011;10488;50.846;4.078;2023-05-19T11:47:27;11.18;;;3.40;;
20657;SDS011;10488;50.846;4.078;2023-05-19T11:49:55;7.88;;;3.05;;
20657;SDS011;10488;50.846;4.078;2023-05-19T11:52:23;7.53;;;2.70;;
20657;SDS011;10488;50.846;4.078;2023-05-19T11:54:50;9.93;;;3.45;;
20657;SDS011;10488;50.846;4.078;2023-05-19T11:57:16;7.05;;;2.85;;
20657;SDS011;10488;50.846;4.078;2023-05-19T11:59:42;8.95;;;3.55;;
20657;SDS011;10488;50.846;4.078;2023-05-19T12:02:22;10.30;;;3.10;;
20657;SDS011;10488;50.846;4.078;2023-05-19T12:04:49;6.80;;;3.42;;
20657;SDS011;10488;50.846;4.078;2023-05-19T12:07:16;8.75;;;3.22;;
20657;SDS011;10488;50.846;4.078;2023-05-19T12:09:44;10.25;;;3.90;;
20657;SDS011;10488;50.846;4.078;2023-05-19T12:12:14;10.10;;;4.00;;
20657;SDS011;10488;50.846;4.078;2023-05-19T12:14:42;5.85;;;3.35;;
20657;SDS011;10488;50.846;4.078;2023-05-19T12:19:37;6.32;;;3.40;;
20657;SDS011;10488;50.846;4.078;2023-05-19T12:22:08;10.75;;;3.67;;
20657;SDS011;10488;50.846;4.078;2023-05-19T12:24:34;6.40;;;3.78;;
20657;SDS011;10488;50.846;4.078;2023-05-19T12:27:11;7.82;;;4.00;;
20657;SDS011;10488;50.846;4.078;2023-05-19T12:29:53;7.28;;;3.47;;
20657;SDS011;10488;50.846;4.078;2023-05-19T12:32:24;6.03;;;3.40;;
20657;SDS011;10488;50.846;4.078;2023-05-19T12:34:52;8.27;;;3.55;;
20657;SDS011;10488;50.846;4.078;2023-05-19T12:37:19;8.45;;;4.20;;
20657;SDS011;10488;50.846;4.078;2023-05-19T12:39:46;9.63;;;4.40;;
20657;SDS011;10488;50.846;4.078;2023-05-19T12:42:13;6.38;;;3.97;;
20657;SDS011;10488;50.846;4.078;2023-05-19T12:44:43;10.77;;;4.32;;
20657;SDS011;10488;50.846;4.078;2023-05-19T12:47:12;6.68;;;4.18;;
20657;SDS011;10488;50.846;4.078;2023-05-19T12:52:28;6.93;;;3.45;;
20657;SDS011;10488;50.846;4.078;2023-05-19T12:54:57;9.35;;;3.88;;
20657;SDS011;10488;50.846;4.078;2023-05-19T12:57:29;8.85;;;4.50;;
20657;SDS011;10488;50.846;4.078;2023-05-19T13:00:31;9.35;;;4.03;;
20657;SDS011;10488;50.846;4.078;2023-05-19T13:03:02;7.90;;;3.80;;
20657;SDS011;10488;50.846;4.078;2023-05-19T13:05:30;8.98;;;4.20;;
20657;SDS011;10488;50.846;4.078;2023-05-19T13:10:29;13.60;;;4.20;;
20657;SDS011;10488;50.846;4.078;2023-05-19T13:12:56;12.00;;;4.38;;
20657;SDS011;10488;50.846;4.078;2023-05-19T13:15:23;15.43;;;3.88;;
20657;SDS011;10488;50.846;4.078;2023-05-19T13:17:53;10.70;;;4.00;;
20657;SDS011;10488;50.846;4.078;2023-05-19T13:20:19;9.52;;;3.55;;
20657;SDS011;10488;50.846;4.078;2023-05-19T13:22:46;7.53;;;3.13;;
20657;SDS011;10488;50.846;4.078;2023-05-19T13:25:12;8.25;;;3.53;;
20657;SDS011;10488;50.846;4.078;2023-05-19T13:27:38;8.82;;;3.53;;
20657;SDS011;10488;50.846;4.078;2023-05-19T13:30:04;6.65;;;3.47;;
20657;SDS011;10488;50.846;4.078;2023-05-19T13:32:31;7.35;;;3.85;;
20657;SDS011;10488;50.846;4.078;2023-05-19T13:34:57;7.20;;;3.55;;
20657;SDS011;10488;50.846;4.078;2023-05-19T13:37:23;8.52;;;3.58;;
20657;SDS011;10488;50.846;4.078;2023-05-19T13:39:48;6.95;;;2.72;;
20657;SDS011;10488;50.846;4.078;2023-05-19T13:42:14;8.10;;;3.45;;
20657;SDS011;10488;50.846;4.078;2023-05-19T13:44:41;8.95;;;3.17;;
20657;SDS011;10488;50.846;4.078;2023-05-19T13:47:08;6.28;;;3.38;;
20657;SDS011;10488;50.846;4.078;2023-05-19T13:49:34;9.82;;;3.58;;
20657;SDS011;10488;50.846;4.078;2023-05-19T13:52:00;6.70;;;3.22;;
20657;SDS011;10488;50.846;4.078;2023-05-19T13:54:26;10.73;;;3.58;;
20657;SDS011;10488;50.846;4.078;2023-05-19T13:56:51;9.60;;;2.92;;
20657;SDS011;10488;50.846;4.078;2023-05-19T13:59:18;5.07;;;3.10;;
20657;SDS011;10488;50.846;4.078;2023-05-19T14:01:45;15.88;;;3.10;;
20657;SDS011;10488;50.846;4.078;2023-05-19T14:04:12;6.55;;;2.90;;
20657;SDS011;10488;50.846;4.078;2023-05-19T14:06:40;7.57;;;3.38;;
20657;SDS011;10488;50.846;4.078;2023-05-19T14:09:06;5.43;;;3.42;;
20657;SDS011;10488;50.846;4.078;2023-05-19T14:11:31;8.07;;;3.03;;
20657;SDS011;10488;50.846;4.078;2023-05-19T14:13:57;6.75;;;3.28;;
20657;SDS011;10488;50.846;4.078;2023-05-19T14:16:23;7.90;;;3.40;;
20657;SDS011;10488;50.846;4.078;2023-05-19T14:18:50;11.10;;;3.33;;
20657;SDS011;10488;50.846;4.078;2023-05-19T14:21:16;8.23;;;3.30;;
20657;SDS011;10488;50.846;4.078;2023-05-19T14:23:42;10.00;;;3.60;;
20657;SDS011;10488;50.846;4.078;2023-05-19T14:26:07;5.50;;;3.20;;
20657;SDS011;10488;50.846;4.078;2023-05-19T14:28:33;7.07;;;2.55;;
20657;SDS011;10488;50.846;4.078;2023-05-19T14:30:59;6.15;;;2.72;;
20657;SDS011;10488;50.846;4.078;2023-05-19T14:33:24;8.18;;;2.80;;
20657;SDS011;10488;50.846;4.078;2023-05-19T14:35:51;5.32;;;2.15;;
20657;SDS011;10488;50.846;4.078;2023-05-19T14:38:17;6.63;;;3.00;;
20657;SDS011;10488;50.846;4.078;2023-05-19T14:40:43;7.72;;;3.58;;
20657;SDS011;10488;50.846;4.078;2023-05-19T14:43:09;7.10;;;2.78;;
20657;SDS011;10488;50.846;4.078;2023-05-19T14:45:35;7.75;;;3.03;;
20657;SDS011;10488;50.846;4.078;2023-05-19T14:48:02;11.20;;;3.55;;
20657;SDS011;10488;50.846;4.078;2023-05-19T14:50:27;7.20;;;3.03;;
20657;SDS011;10488;50.846;4.078;2023-05-19T14:52:53;7.35;;;2.83;;
20657;SDS011;10488;50.846;4.078;2023-05-19T14:55:19;8.43;;;2.75;;
20657;SDS011;10488;50.846;4.078;2023-05-19T14:57:45;6.38;;;2.95;;
20657;SDS011;10488;50.846;4.078;2023-05-19T15:00:10;9.13;;;2.80;;
20657;SDS011;10488;50.846;4.078;2023-05-19T15:02:36;6.75;;;2.50;;
20657;SDS011;10488;50.846;4.078;2023-05-19T15:05:02;7.22;;;2.95;;
20657;SDS011;10488;50.846;4.078;2023-05-19T15:07:28;9.48;;;2.33;;
20657;SDS011;10488;50.846;4.078;2023-05-19T15:09:54;7.68;;;2.67;;
20657;SDS011;10488;50.846;4.078;2023-05-19T15:12:20;6.60;;;3.38;;
20657;SDS011;10488;50.846;4.078;2023-05-19T15:14:46;8.65;;;2.60;;
20657;SDS011;10488;50.846;4.078;2023-05-19T15:17:12;9.15;;;3.00;;
20657;SDS011;10488;50.846;4.078;2023-05-19T15:19:38;10.23;;;2.92;;
20657;SDS011;10488;50.846;4.078;2023-05-19T15:22:05;21.92;;;3.03;;